Time;durP1;ratioP1;P1;durP2;ratioP2;P2;SDS_P1;SDS_P2;PMS_P1;PMS_P2;Temp;Humidity;BMP_temperature;BMP_pressure;BME280_temperature;BME280_humidity;BME280_pressure;Samples;Min_cycle;Max_cycle;Signal;HPM_P1;HPM_P2
2021/07/24 00:01:03;;;;;;;26.63;21.08;;;13.50;99.90;;;;;;4196607;28;20028;-78
2021/07/24 00:03:04;;;;;;;27.52;21.35;;;13.70;99.90;;;;;;4191580;28;20029;-78
2021/07/24 00:05:05;;;;;;;29.42;20.42;;;13.50;99.90;;;;;;4214112;28;20394;-79
2021/07/24 00:07:10;;;;;;;32.40;20.75;;;13.60;99.90;;;;;;4214076;28;20055;-79
2021/07/24 00:09:11;;;;;;;29.92;20.85;;;13.50;99.90;;;;;;4196410;28;20047;-78
2021/07/24 00:11:14;;;;;;;27.40;21.00;;;12.60;99.90;;;;;;4214297;28;20746;-78
2021/07/24 00:13:16;;;;;;;27.30;21.25;;;13.60;99.90;;;;;;4207600;28;20056;-78
2021/07/24 00:15:18;;;;;;;35.67;22.23;;;13.10;99.90;;;;;;4179716;28;20037;-77
2021/07/24 00:17:19;;;;;;;39.75;22.20;;;13.70;99.90;;;;;;4175410;28;20140;-78
2021/07/24 00:19:20;;;;;;;30.58;22.00;;;13.60;99.90;;;;;;4182571;28;20021;-78
2021/07/24 00:21:20;;;;;;;32.50;21.65;;;13.70;99.90;;;;;;4196254;28;20051;-78
2021/07/24 00:23:21;;;;;;;32.55;21.50;;;13.60;99.90;;;;;;4191283;28;20068;-78
2021/07/24 00:25:24;;;;;;;32.08;21.27;;;13.50;99.90;;;;;;4189701;28;20143;-78
2021/07/24 00:27:27;;;;;;;26.58;19.95;;;13.30;99.90;;;;;;4196571;28;20088;-80
2021/07/24 00:29:27;;;;;;;34.88;20.60;;;13.50;99.90;;;;;;4182192;28;20028;-78
2021/07/24 00:31:30;;;;;;;27.95;19.45;;;13.70;99.90;;;;;;4196183;28;20476;-77
2021/07/24 00:33:31;;;;;;;28.95;19.83;;;13.60;99.90;;;;;;4190304;28;20029;-78
2021/07/24 00:35:32;;;;;;;33.15;21.33;;;13.60;99.90;;;;;;4179125;28;20064;-78
2021/07/24 00:37:33;;;;;;;23.95;19.23;;;13.50;99.90;;;;;;4178919;28;20025;-78
2021/07/24 00:39:34;;;;;;;26.35;20.70;;;14.00;99.90;;;;;;4193882;28;20024;-78
2021/07/24 00:41:48;;;;;;;27.63;19.88;;;13.50;99.90;;;;;;4195354;28;20120;-77
2021/07/24 00:43:59;;;;;;;28.20;21.27;;;13.50;99.90;;;;;;4195236;28;20029;-78
2021/07/24 00:46:04;;;;;;;34.17;21.52;;;13.30;99.90;;;;;;4196030;28;20039;-78
2021/07/24 00:48:05;;;;;;;28.42;19.98;;;13.00;99.90;;;;;;4196889;28;20121;-79
2021/07/24 00:50:11;;;;;;;27.38;20.80;;;13.50;99.90;;;;;;4183104;28;20041;-78
2021/07/24 00:52:13;;;;;;;32.33;21.40;;;13.60;99.90;;;;;;4197286;28;20032;-78
2021/07/24 00:54:15;;;;;;;30.17;21.07;;;13.50;99.90;;;;;;4195926;28;20032;-78
2021/07/24 00:56:17;;;;;;;28.02;18.73;;;13.30;99.90;;;;;;4195979;28;20182;-78
2021/07/24 00:58:24;;;;;;;27.40;19.42;;;13.60;99.90;;;;;;4196048;28;20020;-77
2021/07/24 01:00:24;;;;;;;31.70;20.00;;;13.60;99.90;;;;;;4195623;28;20041;-78
2021/07/24 01:02:25;;;;;;;31.73;21.20;;;13.60;99.90;;;;;;4191475;28;20450;-79
2021/07/24 01:04:27;;;;;;;31.67;21.08;;;13.30;99.90;;;;;;4189675;28;20024;-79
2021/07/24 01:06:27;;;;;;;32.15;22.50;;;13.40;99.90;;;;;;4195603;28;20029;-78
2021/07/24 01:08:36;;;;;;;30.88;21.45;;;13.40;99.90;;;;;;4192240;28;20029;-78
2021/07/24 01:10:38;;;;;;;32.65;21.10;;;13.20;99.90;;;;;;4192316;28;20052;-78
2021/07/24 01:12:39;;;;;;;29.23;20.92;;;13.40;99.90;;;;;;4195471;28;20487;-78
2021/07/24 01:14:39;;;;;;;31.00;21.75;;;13.30;99.90;;;;;;4195009;28;20032;-77
2021/07/24 01:16:40;;;;;;;31.27;21.30;;;13.30;99.90;;;;;;4196752;28;20063;-78
2021/07/24 01:18:42;;;;;;;30.75;21.35;;;13.30;99.90;;;;;;4195139;28;20032;-77
2021/07/24 01:20:43;;;;;;;34.58;22.10;;;13.10;99.90;;;;;;4187885;28;20032;-77
2021/07/24 01:22:46;;;;;;;35.05;22.90;;;13.30;99.90;;;;;;4180562;28;20025;-78
2021/07/24 01:24:53;;;;;;;37.35;22.13;;;13.30;99.90;;;;;;4195302;28;20486;-78
2021/07/24 01:26:53;;;;;;;36.05;21.98;;;13.10;99.90;;;;;;4185390;28;20128;-78
2021/07/24 01:28:54;;;;;;;38.03;22.95;;;13.30;99.90;;;;;;4189378;28;20052;-78
2021/07/24 01:30:55;;;;;;;33.55;21.77;;;13.30;99.90;;;;;;4181962;28;20033;-78
2021/07/24 01:32:56;;;;;;;33.65;20.88;;;13.20;99.90;;;;;;4178476;28;20120;-77
2021/07/24 01:35:00;;;;;;;37.17;22.42;;;13.20;99.90;;;;;;4195313;28;20457;-77
2021/07/24 01:37:02;;;;;;;33.00;21.23;;;13.40;99.90;;;;;;4180549;28;20033;-79
2021/07/24 01:39:09;;;;;;;34.55;22.98;;;13.10;99.90;;;;;;4182406;28;20029;-77
2021/07/24 01:41:14;;;;;;;35.25;22.55;;;13.30;99.90;;;;;;4178914;28;20654;-77
2021/07/24 01:43:15;;;;;;;33.50;21.58;;;13.30;99.90;;;;;;4191732;28;20039;-78
2021/07/24 01:45:16;;;;;;;36.72;21.27;;;13.40;99.90;;;;;;4203470;28;20052;-78
2021/07/24 01:47:19;;;;;;;33.05;21.40;;;13.30;99.90;;;;;;4190184;28;20047;-77
2021/07/24 01:52:46;;;;;;;36.03;21.98;;;13.60;99.90;;;;;;4192614;28;20032;-78
2021/07/24 01:54:27;;;;;;;34.65;22.13;;;13.20;99.90;;;;;;4190627;28;20027;-77
2021/07/24 01:56:32;;;;;;;36.53;21.95;;;14.20;99.90;;;;;;4198227;28;20166;-78
2021/07/24 01:58:36;;;;;;;35.05;22.23;;;13.30;99.90;;;;;;4198342;28;20463;-78
2021/07/24 02:00:38;;;;;;;34.33;23.52;;;13.20;99.90;;;;;;4186976;28;20025;-78
2021/07/24 02:02:48;;;;;;;35.22;21.63;;;13.20;99.90;;;;;;4185168;28;20074;-77
2021/07/24 02:04:51;;;;;;;34.35;22.05;;;13.20;99.90;;;;;;4185273;28;20037;-77
2021/07/24 02:06:54;;;;;;;34.60;22.42;;;13.20;99.90;;;;;;4193670;28;20020;-78
2021/07/24 02:08:56;;;;;;;39.53;22.02;;;13.00;99.90;;;;;;4199482;28;20033;-78
2021/07/24 02:11:04;;;;;;;33.13;21.77;;;12.40;99.90;;;;;;4198401;28;20106;-76
2021/07/24 02:13:06;;;;;;;35.05;22.95;;;13.20;99.90;;;;;;4198094;28;20035;-79
2021/07/24 02:15:07;;;;;;;39.67;23.20;;;13.20;99.90;;;;;;4197800;28;20071;-77
2021/07/24 02:17:07;;;;;;;33.08;22.55;;;13.20;99.90;;;;;;4199222;28;20036;-78
2021/07/24 02:19:09;;;;;;;36.20;21.98;;;13.20;99.90;;;;;;4197990;28;20399;-78
2021/07/24 02:21:12;;;;;;;41.25;24.88;;;13.10;99.90;;;;;;4195608;28;20050;-79
2021/07/24 02:23:15;;;;;;;38.07;22.63;;;13.00;99.90;;;;;;4186143;28;20032;-78
2021/07/24 02:25:22;;;;;;;;;;;13.20;99.90;;;;;;4199868;28;20049;-79
2021/07/24 02:27:23;;;;;;;35.13;21.48;;;13.10;99.90;;;;;;4199402;28;20420;-78
2021/07/24 02:29:24;;;;;;;37.80;22.83;;;12.90;99.90;;;;;;4184478;28;20047;-78
2021/07/24 02:31:28;;;;;;;43.67;24.42;;;13.20;99.90;;;;;;4198519;28;20063;-80
2021/07/24 02:33:28;;;;;;;33.30;22.00;;;12.80;99.90;;;;;;4197970;28;20089;-77
2021/07/24 02:35:36;;;;;;;39.00;23.40;;;13.00;99.90;;;;;;4214335;28;20387;-78
2021/07/24 02:37:38;;;;;;;41.15;23.35;;;12.90;99.90;;;;;;4194327;28;20356;-78
2021/07/24 02:39:39;;;;;;;38.20;23.20;;;13.00;99.90;;;;;;4198922;28;20020;-80
2021/07/24 02:41:40;;;;;;;40.72;22.90;;;13.10;99.90;;;;;;4183835;28;20456;-78
2021/07/24 02:43:41;;;;;;;39.70;23.90;;;13.10;99.90;;;;;;4196633;28;20369;-78
2021/07/24 02:45:49;;;;;;;39.13;24.23;;;13.40;99.90;;;;;;4197824;28;20036;-78
2021/07/24 02:47:50;;;;;;;43.25;22.98;;;13.40;99.90;;;;;;4197632;28;20032;-79
2021/07/24 02:49:55;;;;;;;37.50;22.77;;;13.40;99.90;;;;;;4198702;28;20105;-79
2021/07/24 02:51:56;;;;;;;42.60;23.58;;;13.40;99.90;;;;;;4199103;28;20047;-77
2021/07/24 02:53:56;;;;;;;37.75;23.45;;;13.40;99.90;;;;;;4197357;28;20684;-77
2021/07/24 02:55:57;;;;;;;36.38;24.02;;;13.40;99.90;;;;;;4198449;28;20029;-77
2021/07/24 02:58:07;;;;;;;40.53;23.73;;;13.40;99.90;;;;;;4197478;28;20040;-77
2021/07/24 03:00:09;;;;;;;39.83;22.73;;;13.20;99.90;;;;;;4197867;28;20487;-78
2021/07/24 03:02:16;;;;;;;40.63;24.05;;;13.60;99.90;;;;;;4196812;28;20043;-78
2021/07/24 03:04:23;;;;;;;38.35;23.63;;;13.40;99.90;;;;;;4197394;28;20071;-79
2021/07/24 03:06:24;;;;;;;40.47;23.65;;;12.90;99.90;;;;;;4182352;28;20079;-78
2021/07/24 03:08:31;;;;;;;36.17;22.60;;;12.70;99.90;;;;;;4188028;28;20029;-78
2021/07/24 03:10:33;;;;;;;35.10;21.40;;;13.10;99.90;;;;;;4189306;28;20025;-78
2021/07/24 03:12:36;;;;;;;38.78;22.88;;;12.90;99.90;;;;;;4192538;28;20107;-78
2021/07/24 03:14:36;;;;;;;39.67;24.52;;;12.60;99.90;;;;;;4198431;28;20043;-78
2021/07/24 03:16:38;;;;;;;36.80;24.17;;;13.40;99.90;;;;;;4197020;28;20041;-78
2021/07/24 03:18:45;;;;;;;39.03;24.00;;;13.00;99.90;;;;;;4197348;28;20515;-79
2021/07/24 03:20:45;;;;;;;36.63;21.90;;;13.20;99.90;;;;;;4190671;28;20049;-79
2021/07/24 03:22:46;;;;;;;37.28;21.88;;;13.20;99.90;;;;;;4198026;28;20034;-79
2021/07/24 03:24:47;;;;;;;41.22;22.33;;;12.80;99.90;;;;;;4181670;28;20112;-79
2021/07/24 03:26:48;;;;;;;36.03;20.70;;;13.00;99.90;;;;;;4197258;28;20090;-78
2021/07/24 03:28:49;;;;;;;35.88;21.73;;;13.90;99.90;;;;;;4188900;28;20082;-78
2021/07/24 03:30:50;;;;;;;37.92;22.80;;;13.30;99.90;;;;;;4197210;28;20098;-79
2021/07/24 03:32:56;;;;;;;32.80;21.80;;;13.30;99.90;;;;;;4187763;28;20102;-79
2021/07/24 03:34:58;;;;;;;37.08;23.20;;;13.30;99.90;;;;;;4196704;28;20031;-78
2021/07/24 03:37:00;;;;;;;37.15;23.30;;;13.50;99.90;;;;;;4188438;28;20064;-79
2021/07/24 03:39:02;;;;;;;43.33;21.25;;;13.50;99.90;;;;;;4194327;28;20091;-79
2021/07/24 03:41:04;;;;;;;36.47;22.83;;;12.60;99.90;;;;;;4196619;28;20376;-79
2021/07/24 03:43:05;;;;;;;38.08;24.33;;;13.40;99.90;;;;;;4196561;28;20123;-79
2021/07/24 03:45:06;;;;;;;39.75;23.15;;;13.40;99.90;;;;;;4193217;28;20799;-77
2021/07/24 03:47:08;;;;;;;38.20;22.35;;;13.40;99.90;;;;;;4196598;28;20090;-78
2021/07/24 03:49:11;;;;;;;37.75;22.77;;;13.10;99.90;;;;;;4195981;28;20081;-78
2021/07/24 03:51:13;;;;;;;40.20;23.25;;;14.30;99.90;;;;;;4195513;28;20040;-79
2021/07/24 03:53:14;;;;;;;39.13;22.20;;;13.30;99.90;;;;;;4194991;28;20028;-78
2021/07/24 03:55:15;;;;;;;37.85;22.35;;;13.40;99.90;;;;;;4193734;28;20116;-78
2021/07/24 03:57:19;;;;;;;38.30;23.05;;;13.40;99.90;;;;;;4197747;28;20028;-77
2021/07/24 03:59:26;;;;;;;37.53;22.40;;;13.40;99.90;;;;;;4190888;28;20055;-77
2021/07/24 04:01:28;;;;;;;40.42;21.55;;;13.40;99.90;;;;;;4213079;28;20076;-78
2021/07/24 04:03:29;;;;;;;38.55;23.23;;;13.40;99.90;;;;;;4191573;28;20052;-78
2021/07/24 04:05:34;;;;;;;34.60;22.65;;;13.40;99.90;;;;;;4191011;28;20017;-78
2021/07/24 04:07:36;;;;;;;41.60;24.35;;;13.50;99.90;;;;;;4189585;28;20388;-78
2021/07/24 04:09:37;;;;;;;39.97;23.35;;;13.60;99.90;;;;;;4197675;28;20044;-78
2021/07/24 04:11:40;;;;;;;41.65;22.27;;;13.60;99.90;;;;;;4191558;28;20032;-78
2021/07/24 04:13:40;;;;;;;40.97;22.80;;;13.70;99.90;;;;;;4196308;28;20471;-78
2021/07/24 04:15:44;;;;;;;39.65;20.70;;;13.60;99.90;;;;;;4192034;28;20115;-77
2021/07/24 04:17:46;;;;;;;37.63;22.08;;;13.70;99.90;;;;;;4196102;28;20060;-78
2021/07/24 04:19:48;;;;;;;39.60;23.25;;;13.80;99.90;;;;;;4187359;28;20031;-78
2021/07/24 04:21:54;;;;;;;34.53;23.30;;;13.80;99.90;;;;;;4214198;28;20024;-78
2021/07/24 04:23:55;;;;;;;33.45;21.30;;;13.90;99.90;;;;;;4195958;28;20430;-77
2021/07/24 04:25:56;;;;;;;35.80;22.25;;;13.90;99.90;;;;;;4196150;28;20040;-79
2021/07/24 04:27:58;;;;;;;30.48;21.40;;;14.00;99.90;;;;;;4195825;28;20032;-78
2021/07/24 04:29:59;;;;;;;32.45;20.42;;;14.00;99.90;;;;;;4180267;28;20492;-78
2021/07/24 04:32:06;;;;;;;29.60;21.92;;;14.10;99.90;;;;;;4187902;28;20036;-77
2021/07/24 04:34:07;;;;;;;33.80;20.70;;;14.20;99.90;;;;;;4188632;28;20036;-77
2021/07/24 04:36:14;;;;;;;29.40;19.70;;;14.20;99.90;;;;;;4210135;28;20028;-77
2021/07/24 04:38:16;;;;;;;36.15;20.27;;;14.30;99.90;;;;;;4202366;28;20040;-80
2021/07/24 04:40:17;;;;;;;34.13;20.35;;;14.30;99.90;;;;;;4195705;28;20033;-79
2021/07/24 04:42:18;;;;;;;27.85;21.08;;;14.40;99.90;;;;;;4206568;28;20490;-77
2021/07/24 04:44:18;;;;;;;30.77;19.75;;;14.40;99.90;;;;;;4196655;28;20025;-78
2021/07/24 04:46:19;;;;;;;27.65;18.25;;;14.50;99.90;;;;;;4191733;28;20068;-78
2021/07/24 04:48:20;;;;;;;27.45;19.17;;;14.20;99.90;;;;;;4184155;28;20033;-78
2021/07/24 04:50:21;;;;;;;27.35;18.83;;;14.50;99.90;;;;;;4195654;28;20472;-78
2021/07/24 04:52:22;;;;;;;28.17;19.38;;;14.60;99.90;;;;;;4195791;28;20570;-79
2021/07/24 04:54:22;;;;;;;27.73;19.38;;;14.50;99.90;;;;;;4195593;28;20033;-78
2021/07/24 04:56:24;;;;;;;25.27;18.00;;;14.70;99.90;;;;;;4195614;28;20039;-78
2021/07/24 04:58:30;;;;;;;26.70;17.58;;;15.00;99.90;;;;;;4213783;28;20756;-79
2021/07/24 05:00:32;;;;;;;25.13;18.80;;;14.70;99.90;;;;;;4195146;28;20139;-77
2021/07/24 05:02:32;;;;;;;25.70;18.80;;;14.70;99.90;;;;;;4194922;28;20470;-77
2021/07/24 05:04:33;;;;;;;23.27;17.75;;;14.80;99.90;;;;;;4195447;28;20112;-77
2021/07/24 05:06:35;;;;;;;27.33;19.42;;;14.80;99.90;;;;;;4195280;28;20439;-79
2021/07/24 05:08:36;;;;;;;26.73;18.35;;;14.90;99.90;;;;;;4195474;28;20128;-77
2021/07/24 05:10:40;;;;;;;25.60;17.70;;;14.80;99.90;;;;;;4213468;28;20070;-77
2021/07/24 05:12:41;;;;;;;27.65;18.10;;;14.90;99.90;;;;;;4162389;28;20029;-77
2021/07/24 05:14:42;;;;;;;28.08;17.60;;;15.00;99.90;;;;;;4195263;28;20085;-78
2021/07/24 05:16:42;;;;;;;25.58;17.77;;;14.80;99.90;;;;;;4195593;28;20040;-78
2021/07/24 05:18:44;;;;;;;30.52;18.35;;;15.00;99.90;;;;;;4213452;28;20030;-77
2021/07/24 05:20:45;;;;;;;25.35;18.15;;;14.90;99.90;;;;;;4194875;28;20052;-79
2021/07/24 05:22:45;;;;;;;25.63;16.73;;;15.00;99.90;;;;;;4194470;28;20123;-77
2021/07/24 05:24:46;;;;;;;24.35;18.23;;;14.90;99.90;;;;;;4212131;28;20110;-78
2021/07/24 05:26:46;;;;;;;23.13;16.75;;;15.80;99.90;;;;;;4184313;28;20036;-77
2021/07/24 05:28:49;;;;;;;25.48;16.63;;;15.10;99.90;;;;;;4211943;28;20043;-77
2021/07/24 05:30:51;;;;;;;26.65;17.35;;;14.40;99.90;;;;;;4189294;28;20155;-77
2021/07/24 05:32:51;;;;;;;24.10;17.95;;;15.20;99.90;;;;;;4194923;28;20029;-77
2021/07/24 05:34:52;;;;;;;28.90;18.10;;;15.30;99.90;;;;;;4192330;28;20583;-78
2021/07/24 05:36:53;;;;;;;22.92;16.48;;;15.10;99.90;;;;;;4212762;28;20032;-77
2021/07/24 05:38:54;;;;;;;22.88;16.23;;;15.40;99.90;;;;;;4195053;28;20120;-77
2021/07/24 05:40:58;;;;;;;23.08;17.02;;;15.40;99.90;;;;;;4194264;28;20028;-78
2021/07/24 05:43:00;;;;;;;22.38;16.48;;;14.90;99.90;;;;;;4189918;28;20033;-77
2021/07/24 05:45:02;;;;;;;22.40;17.23;;;15.60;99.90;;;;;;4191107;28;20500;-77
2021/07/24 05:47:04;;;;;;;29.20;17.52;;;15.70;99.90;;;;;;4194593;28;20039;-77
2021/07/24 05:49:05;;;;;;;23.30;15.68;;;15.70;99.90;;;;;;4191169;28;20021;-77
2021/07/24 05:51:07;;;;;;;22.77;16.88;;;15.60;99.90;;;;;;4188347;28;20036;-78
2021/07/24 05:53:08;;;;;;;23.27;17.23;;;15.60;99.90;;;;;;4206727;28;20074;-78
2021/07/24 05:55:09;;;;;;;23.17;17.40;;;15.40;99.90;;;;;;4193061;28;20500;-77
2021/07/24 05:57:12;;;;;;;24.20;18.35;;;16.00;99.90;;;;;;4205142;28;20499;-78
2021/07/24 05:59:15;;;;;;;24.05;18.13;;;15.80;99.90;;;;;;4191825;28;20044;-77
2021/07/24 06:01:17;;;;;;;22.33;16.40;;;16.10;99.90;;;;;;4194273;28;20519;-77
2021/07/24 06:03:19;;;;;;;23.73;16.27;;;15.80;99.90;;;;;;4193703;28;20045;-77
2021/07/24 06:05:19;;;;;;;20.30;17.02;;;16.10;99.90;;;;;;4178109;28;20029;-78
2021/07/24 06:07:21;;;;;;;19.33;15.23;;;16.50;99.90;;;;;;4198533;28;20032;-78
2021/07/24 06:09:22;;;;;;;21.40;15.85;;;16.40;99.90;;;;;;4197983;28;20036;-77
2021/07/24 06:11:23;;;;;;;19.25;15.25;;;15.90;99.90;;;;;;4211901;28;20370;-77
2021/07/24 06:13:24;;;;;;;19.52;15.15;;;16.20;99.90;;;;;;4195270;28;20029;-76
2021/07/24 06:15:25;;;;;;;20.35;15.52;;;16.20;99.90;;;;;;4194989;28;20415;-78
2021/07/24 06:17:27;;;;;;;21.75;14.80;;;16.80;99.90;;;;;;4208894;28;20028;-77
2021/07/24 06:19:33;;;;;;;26.17;15.13;;;17.00;99.90;;;;;;4188570;28;20017;-77
2021/07/24 06:21:35;;;;;;;22.30;14.77;;;17.20;99.90;;;;;;4195089;28;20551;-77
2021/07/24 06:23:36;;;;;;;18.80;15.90;;;17.30;99.90;;;;;;4187256;28;20025;-77
2021/07/24 06:25:38;;;;;;;17.50;14.05;;;17.60;99.90;;;;;;4193844;28;20028;-77
2021/07/24 06:27:46;;;;;;;18.52;14.10;;;16.50;99.90;;;;;;4185968;28;20076;-77
2021/07/24 06:29:47;;;;;;;18.25;14.80;;;16.40;99.90;;;;;;4195166;28;20033;-76
2021/07/24 06:31:48;;;;;;;19.13;14.60;;;17.30;99.90;;;;;;4211834;28;20363;-77
2021/07/24 06:33:49;;;;;;;20.38;14.75;;;17.40;99.90;;;;;;4194713;28;20025;-77
2021/07/24 06:35:50;;;;;;;18.02;13.57;;;16.70;99.90;;;;;;4209549;28;20067;-79
2021/07/24 06:37:52;;;;;;;17.13;13.80;;;17.30;99.90;;;;;;4214496;28;20028;-77
2021/07/24 06:39:58;;;;;;;20.50;15.20;;;17.20;99.90;;;;;;4195635;28;20498;-77
2021/07/24 06:42:04;;;;;;;17.25;13.30;;;17.90;99.90;;;;;;4205796;28;20031;-78
2021/07/24 06:44:06;;;;;;;18.13;13.57;;;18.00;99.90;;;;;;4215011;28;20021;-77
2021/07/24 06:46:12;;;;;;;18.67;14.07;;;18.00;99.90;;;;;;4192601;28;20040;-77
2021/07/24 06:48:13;;;;;;;16.75;12.55;;;18.10;99.90;;;;;;4193689;28;20052;-77
2021/07/24 06:50:16;;;;;;;16.02;13.80;;;18.10;99.90;;;;;;4194213;28;20064;-79
2021/07/24 06:52:17;;;;;;;;;;;18.30;99.90;;;;;;4215600;28;20475;-78
2021/07/24 06:54:18;;;;;;;14.68;12.80;;;18.20;99.90;;;;;;4196449;28;19980;-79
2021/07/24 06:56:18;;;;;;;14.88;12.82;;;18.20;99.90;;;;;;4194948;28;20035;-79
2021/07/24 06:58:20;;;;;;;17.85;12.90;;;18.20;99.90;;;;;;4197641;28;20024;-78
2021/07/24 07:00:23;;;;;;;15.55;12.50;;;18.30;99.90;;;;;;4188710;28;20025;-78
2021/07/24 07:02:25;;;;;;;16.17;12.80;;;18.40;99.90;;;;;;4212621;28;20107;-78
2021/07/24 07:04:27;;;;;;;15.30;13.23;;;18.50;99.90;;;;;;4217404;28;20035;-78
2021/07/24 07:06:30;;;;;;;16.52;12.98;;;18.50;99.90;;;;;;4195856;28;20059;-77
2021/07/24 07:08:31;;;;;;;15.20;13.35;;;18.70;99.90;;;;;;4215481;28;20130;-78
2021/07/24 07:10:31;;;;;;;14.07;12.35;;;18.80;99.90;;;;;;4215270;28;20016;-78
2021/07/24 07:12:32;;;;;;;16.27;13.05;;;18.90;99.90;;;;;;4197247;28;20028;-78
2021/07/24 07:14:32;;;;;;;16.27;12.85;;;18.90;99.90;;;;;;4193992;28;20049;-79
2021/07/24 07:16:34;;;;;;;14.77;12.93;;;19.20;99.90;;;;;;4186397;28;20380;-79
2021/07/24 07:18:37;;;;;;;17.48;13.63;;;19.30;99.90;;;;;;4197392;28;20028;-78
2021/07/24 07:20:37;;;;;;;16.20;12.98;;;19.10;99.90;;;;;;4196441;28;20033;-79
2021/07/24 07:22:38;;;;;;;17.75;13.10;;;19.00;99.90;;;;;;4192222;28;20735;-78
2021/07/24 07:24:39;;;;;;;14.98;12.75;;;19.10;99.90;;;;;;4196468;28;20032;-79
2021/07/24 07:26:46;;;;;;;16.40;13.95;;;19.10;99.90;;;;;;4196788;28;20024;-76
2021/07/24 07:28:47;;;;;;;19.13;14.57;;;19.30;99.90;;;;;;4197074;28;20395;-78
2021/07/24 07:30:48;;;;;;;25.05;19.80;;;19.50;99.90;;;;;;4214774;28;20032;-79
2021/07/24 07:32:51;;;;;;;15.13;13.52;;;19.40;99.90;;;;;;4226250;28;20039;-79
2021/07/24 07:34:52;;;;;;;15.50;13.18;;;19.50;99.90;;;;;;4182979;28;20029;-79
2021/07/24 07:36:52;;;;;;;15.18;12.43;;;19.40;99.90;;;;;;4208478;28;20573;-78
2021/07/24 07:38:54;;;;;;;14.18;12.27;;;19.50;99.90;;;;;;4204653;28;20055;-78
2021/07/24 07:40:56;;;;;;;14.95;12.77;;;19.40;99.90;;;;;;4213880;28;20036;-79
2021/07/24 07:42:56;;;;;;;13.70;12.23;;;19.50;99.90;;;;;;4183676;28;20496;-80
2021/07/24 07:44:57;;;;;;;14.43;12.13;;;19.60;99.90;;;;;;4208868;28;20035;-79
2021/07/24 07:46:58;;;;;;;14.43;12.93;;;19.70;99.90;;;;;;4183208;28;20086;-79
2021/07/24 07:48:59;;;;;;;13.95;12.55;;;19.90;99.90;;;;;;4197494;28;20087;-78
2021/07/24 07:50:59;;;;;;;13.48;11.95;;;19.90;99.90;;;;;;4208908;28;20032;-79
2021/07/24 07:53:00;;;;;;;15.95;12.90;;;19.80;99.90;;;;;;4195441;28;20025;-79
2021/07/24 07:55:03;;;;;;;23.10;12.82;;;20.10;99.90;;;;;;4195398;28;20033;-79
2021/07/24 07:57:04;;;;;;;16.20;13.50;;;20.40;99.90;;;;;;4194464;28;20115;-78
2021/07/24 07:59:07;;;;;;;14.75;13.00;;;20.60;99.90;;;;;;4194185;28;20025;-79
2021/07/24 08:01:13;;;;;;;16.50;11.90;;;21.00;99.90;;;;;;4199762;28;20491;-79
2021/07/24 08:03:13;;;;;;;14.65;13.05;;;21.00;99.90;;;;;;4187770;28;20578;-78
2021/07/24 08:05:14;;;;;;;13.57;11.65;;;21.10;99.90;;;;;;4213334;28;20029;-79
2021/07/24 08:07:19;;;;;;;13.10;11.27;;;21.30;99.90;;;;;;4211368;28;20115;-79
2021/07/24 08:09:19;;;;;;;13.73;12.32;;;21.30;99.90;;;;;;4212789;28;20043;-79
2021/07/24 08:11:20;;;;;;;12.93;11.40;;;21.50;99.90;;;;;;4211349;28;20028;-79
2021/07/24 08:13:21;;;;;;;13.15;11.75;;;21.60;99.90;;;;;;4209045;28;20043;-79
2021/07/24 08:15:22;;;;;;;12.68;11.18;;;21.50;99.90;;;;;;4211061;28;20050;-79
2021/07/24 08:17:23;;;;;;;16.95;12.90;;;21.80;99.90;;;;;;4193236;28;20033;-79
2021/07/24 08:19:26;;;;;;;13.77;12.35;;;22.00;99.90;;;;;;4188559;28;20507;-77
2021/07/24 08:21:27;;;;;;;16.88;12.40;;;22.30;99.90;;;;;;4189280;28;20040;-79
2021/07/24 08:23:27;;;;;;;13.50;12.18;;;22.50;99.90;;;;;;4205545;28;20479;-79
2021/07/24 08:25:28;;;;;;;15.02;12.07;;;22.60;99.90;;;;;;4192769;28;20020;-79
2021/07/24 08:27:30;;;;;;;17.00;12.68;;;22.80;99.90;;;;;;4213564;28;20036;-77
2021/07/24 08:29:31;;;;;;;13.88;12.05;;;22.90;99.90;;;;;;4195378;28;20044;-77
2021/07/24 08:31:31;;;;;;;13.40;12.00;;;23.00;99.90;;;;;;4208298;28;20055;-79
2021/07/24 08:33:35;;;;;;;15.10;12.90;;;23.10;99.90;;;;;;4212273;28;20027;-79
2021/07/24 08:35:37;;;;;;;13.38;12.00;;;23.40;99.90;;;;;;4210009;28;20036;-78
2021/07/24 08:37:38;;;;;;;14.30;12.18;;;23.40;99.90;;;;;;4195575;28;20679;-78
2021/07/24 08:39:38;;;;;;;14.90;12.93;;;23.40;99.90;;;;;;4213663;28;20087;-78
2021/07/24 08:41:41;;;;;;;14.73;12.52;;;23.40;99.90;;;;;;4195141;28;20043;-78
2021/07/24 08:43:45;;;;;;;15.13;13.60;;;23.30;99.90;;;;;;4195021;28;20141;-78
2021/07/24 08:45:46;;;;;;;17.88;14.50;;;23.10;99.90;;;;;;4192801;28;20044;-78
2021/07/24 08:47:47;;;;;;;14.93;13.43;;;23.20;99.90;;;;;;4194692;28;20492;-79
2021/07/24 08:49:50;;;;;;;15.57;13.35;;;23.20;99.90;;;;;;4192893;28;20067;-79
2021/07/24 08:51:53;;;;;;;14.43;12.98;;;23.10;99.90;;;;;;4195147;28;20032;-79
2021/07/24 08:53:54;;;;;;;16.50;13.18;;;22.80;99.90;;;;;;4192754;28;20029;-80
2021/07/24 08:56:12;;;;;;;14.43;12.85;;;22.90;99.90;;;;;;4207319;28;20038;-79
2021/07/24 08:58:13;;;;;;;16.60;12.18;;;22.90;99.90;;;;;;4192679;28;20102;-80
2021/07/24 09:00:15;;;;;;;14.77;13.35;;;23.20;99.90;;;;;;4210424;28;20030;-78
2021/07/24 09:02:27;;;;;;;14.27;12.77;;;23.30;99.90;;;;;;4212958;28;20035;-77
2021/07/24 09:04:30;;;;;;;14.82;13.23;;;23.40;99.90;;;;;;4186974;28;20082;-80
2021/07/24 09:06:32;;;;;;;15.77;13.00;;;23.40;99.90;;;;;;4195207;28;20028;-80
2021/07/24 09:08:34;;;;;;;21.02;13.57;;;23.40;99.90;;;;;;4192378;28;20025;-79
2021/07/24 09:10:35;;;;;;;14.85;12.02;;;23.70;99.90;;;;;;4190496;28;20434;-80
2021/07/24 09:12:38;;;;;;;16.52;13.10;;;23.80;99.90;;;;;;4194056;28;20348;-78
2021/07/24 09:14:39;;;;;;;14.55;12.38;;;24.10;99.90;;;;;;4194296;28;20060;-79
2021/07/24 09:16:41;;;;;;;14.27;12.88;;;24.60;99.90;;;;;;4211997;28;20072;-79
2021/07/24 09:18:42;;;;;;;16.42;12.20;;;26.20;99.90;;;;;;4212567;28;20055;-77
2021/07/24 09:20:46;;;;;;;18.08;12.85;;;25.00;99.90;;;;;;4212331;28;20024;-78
2021/07/24 09:22:49;;;;;;;16.42;13.10;;;25.10;99.90;;;;;;4209417;28;20032;-79
2021/07/24 09:25:12;;;;;;;15.43;13.48;;;25.10;99.90;;;;;;4212455;28;20527;-78
2021/07/24 09:27:24;;;;;;;;;;;25.20;99.90;;;;;;4210773;28;20036;-79
2021/07/24 09:29:25;;;;;;;15.15;13.20;;;25.10;99.90;;;;;;4189332;28;19920;-80
2021/07/24 09:31:37;;;;;;;16.98;12.65;;;25.20;99.90;;;;;;4192044;28;20127;-79
2021/07/24 09:33:49;;;;;;;15.23;13.55;;;25.10;99.90;;;;;;4191746;28;20028;-80
2021/07/24 09:35:56;;;;;;;15.85;13.63;;;25.10;99.90;;;;;;4203257;28;20593;-79
2021/07/24 09:37:56;;;;;;;14.98;13.48;;;25.10;99.90;;;;;;4213064;28;20024;-79
2021/07/24 09:40:22;;;;;;;17.05;14.00;;;25.10;99.90;;;;;;4194572;28;20029;-79
2021/07/24 09:42:31;;;;;;;18.67;14.40;;;25.20;99.90;;;;;;4192108;28;20025;-78
2021/07/24 09:44:33;;;;;;;14.52;13.02;;;25.10;99.90;;;;;;4185924;28;20078;-79
2021/07/24 09:46:34;;;;;;;15.57;13.98;;;25.20;99.90;;;;;;4193921;28;20028;-80
2021/07/24 09:48:35;;;;;;;16.13;13.32;;;25.20;99.90;;;;;;4211863;28;20039;-79
2021/07/24 09:50:38;;;;;;;16.27;12.75;;;25.70;99.90;;;;;;4212828;28;20030;-78
2021/07/24 09:52:53;;;;;;;15.50;13.82;;;26.10;99.90;;;;;;4195405;28;20426;-80
2021/07/24 09:55:19;;;;;;;18.02;13.65;;;26.30;99.90;;;;;;4208376;28;20028;-79
2021/07/24 09:57:33;;;;;;;17.42;13.27;;;26.20;99.90;;;;;;4202348;28;20041;-80
2021/07/24 09:59:34;;;;;;;18.42;13.68;;;26.10;99.90;;;;;;4202424;28;20041;-80
2021/07/24 10:01:35;;;;;;;13.23;11.93;;;26.20;99.90;;;;;;4210431;28;20024;-80
2021/07/24 10:03:39;;;;;;;14.25;12.55;;;26.10;99.90;;;;;;4188358;28;20047;-80
2021/07/24 10:05:42;;;;;;;16.90;13.88;;;26.20;99.90;;;;;;4190849;28;20063;-79
2021/07/24 10:07:45;;;;;;;16.50;14.43;;;26.30;99.90;;;;;;4193117;28;20480;-80
2021/07/24 10:09:46;;;;;;;16.98;13.02;;;26.20;99.90;;;;;;4188728;28;20037;-80
2021/07/24 10:11:48;;;;;;;18.13;15.90;;;26.20;99.90;;;;;;4206705;28;20038;-80
2021/07/24 10:13:49;;;;;;;17.35;14.05;;;26.00;99.90;;;;;;4193169;28;20112;-80
2021/07/24 10:15:50;;;;;;;14.80;13.23;;;25.80;99.90;;;;;;4212348;28;20033;-80
2021/07/24 10:17:51;;;;;;;16.23;13.88;;;25.80;99.90;;;;;;4192025;28;20502;-79
2021/07/24 10:19:52;;;;;;;15.15;13.52;;;26.00;99.90;;;;;;4208671;28;20028;-80
2021/07/24 10:21:55;;;;;;;18.17;14.55;;;26.10;99.90;;;;;;4193403;28;20025;-79
2021/07/24 10:23:57;;;;;;;17.70;13.45;;;25.90;99.90;;;;;;4211507;28;20028;-78
2021/07/24 10:26:17;;;;;;;16.40;13.23;;;26.00;99.90;;;;;;4193788;28;20033;-79